Latest Weather Observations for Edenhope

IDV60801

Issued at 7:02 pm EDT Wednesday 18 January 2017 (issued every 30 minutes, with the page automatically refreshed every 10 minutes)

About weather observations | Map of weather stations | Latest weather observations for VIC | Other Formats
Station Details ID: 079099 Name: EDENHOPE AIRPORT Lat: -37.02 Lon: 141.27 Height: 155.0 m
Data from the previous 72 hours. | See also: Recent months at Edenhope
Date/Time
EDT
Temp
°C
App
Temp
°C
Dew
Point
°C
Rel
Hum
%
Delta-T
°C
Wind Press
QNH
hPa
Press
MSL
hPa
Rain since
9am
mm
Dir  Spd
km/h
Gust
km/h
Spd
kts
Gust
kts
18/07:00pm 22.2 17.5 5.2 33 8.5 SSE 19 26 10 14 - - -
18/06:30pm 22.9 18.3 5.8 33 8.7 SE 19 28 10 15 - - 0.0
18/06:00pm 23.3 18.9 4.8 30 9.3 SE 17 26 9 14 - - 0.0
18/05:30pm 24.1 19.9 5.5 30 9.5 SE 17 28 9 15 - - 0.0
18/05:00pm 23.8 19.3 6.1 32 9.1 SSE 19 33 10 18 - - 0.0
18/04:30pm 24.2 19.9 6.9 33 9.1 SSE 19 35 10 19 - - 0.0
18/04:00pm 23.2 19.2 6.5 34 8.6 SSE 17 32 9 17 - - 0.0
18/03:30pm 24.6 20.8 7.7 34 9.0 S 17 28 9 15 - - 0.0
18/03:00pm 23.4 19.6 7.5 36 8.4 S 17 26 9 14 - - 0.0
18/02:30pm 22.6 19.9 7.2 37 8.0 S 11 22 6 12 - - 0.0
18/02:00pm 22.5 19.2 7.9 39 7.7 SSE 15 28 8 15 - - 0.0
18/01:30pm 21.5 17.6 7.3 40 7.4 SSE 17 28 9 15 - - 0.0
18/01:00pm 21.0 18.6 8.6 45 6.6 SSW 11 24 6 13 - - 0.0
18/12:30pm 19.7 17.0 9.0 50 5.7 SE 13 20 7 11 - - 0.0
18/12:00pm 18.4 14.4 8.4 52 5.2 S 19 26 10 14 - - 0.0
18/11:30am 17.7 13.8 8.6 55 4.7 S 19 28 10 15 - - 0.0
18/11:00am 17.3 13.4 8.7 57 4.5 SSE 19 24 10 13 - - 0.0
18/10:30am 16.6 12.7 8.6 59 4.1 SSE 19 26 10 14 - - 0.0
18/10:00am 16.5 13.3 8.5 59 4.1 SSE 15 22 8 12 - - 0.0
18/09:30am 15.9 12.5 9.1 64 3.5 S 17 28 9 15 - - 0.0
18/09:00am 15.1 11.3 9.2 68 3.0 SSE 19 30 10 16 - - 0.0
18/08:30am 14.8 11.0 9.8 72 2.6 S 20 32 11 17 - - 0.0
18/08:00am 14.6 12.7 10.4 76 2.2 S 11 17 6 9 - - 0.0
18/07:30am 14.1 12.2 10.5 79 1.9 S 11 17 6 9 - - 0.0
18/07:00am 13.9 12.4 10.5 80 1.8 S 9 17 5 9 - - 0.0
18/06:30am 13.8 12.3 10.4 80 1.8 S 9 15 5 8 - - 0.0
18/06:00am 13.7 11.7 10.1 79 1.9 SSW 11 15 6 8 - - 0.0
18/05:30am 13.8 11.2 10.6 81 1.7 SSW 15 28 8 15 - - 0.0
18/05:00am 14.2 10.8 11.2 82 1.6 S 20 32 11 17 - - 0.0
18/04:30am 15.2 12.5 11.6 79 2.0 S 17 32 9 17 - - 0.0
18/04:00am 15.8 13.7 12.5 81 1.8 S 15 22 8 12 - - 0.0
18/03:30am 16.0 14.7 12.6 80 1.9 S 11 17 6 9 - - 0.0
18/03:00am 16.3 14.7 12.7 79 2.0 SSE 13 19 7 10 - - 0.0
18/02:30am 16.5 14.1 12.7 78 2.1 S 17 28 9 15 - - 0.0
18/02:00am 16.7 15.9 12.8 78 2.2 S 9 11 5 6 - - 0.0
18/01:30am 16.8 15.9 12.7 77 2.3 S 9 15 5 8 - - 0.0
18/01:00am 17.1 15.0 12.4 74 2.6 S 15 22 8 12 - - 0.0
18/12:30am 17.5 14.5 12.6 73 2.7 S 20 30 11 16 - - 0.0
18/12:00am 17.9 16.1 13.4 75 2.6 S 15 22 8 12 - - 0.0
 
Date/Time
EDT
Temp
°C
App
Temp
°C
Dew
Point
°C
Rel
Hum
%
Delta-T
°C
Wind Press
QNH
hPa
Press
MSL
hPa
Rain since
9am
mm
Dir  Spd
km/h
Gust
km/h
Spd
kts
Gust
kts
17/11:30pm 18.2 16.8 13.5 74 2.7 S 13 19 7 10 - - 0.0
17/11:00pm 18.9 16.3 13.1 69 3.3 S 19 28 10 15 - - 0.0
17/10:30pm 19.7 17.3 11.5 59 4.5 SSW 15 22 8 12 - - 0.0
17/10:00pm 20.1 17.6 11.1 56 5.0 S 15 22 8 12 - - 0.0
17/09:30pm 21.3 19.1 12.2 56 5.2 SSW 15 26 8 14 - - 0.0
17/09:00pm 22.5 18.0 11.3 49 6.3 SSW 26 43 14 23 - - 0.0
17/08:30pm 23.8 21.4 12.8 50 6.4 S 17 30 9 16 - - 0.0
17/08:00pm 25.4 23.3 15.1 53 6.2 SSW 20 32 11 17 - - 0.0
17/07:30pm 27.9 25.6 13.1 40 8.8 SSW 17 28 9 15 - - 0.0
17/07:00pm 29.3 26.7 13.1 37 9.7 SSW 19 32 10 17 - - 0.0
17/06:30pm 30.8 28.9 13.1 34 10.6 SSW 15 24 8 13 - - 0.0
17/06:00pm 32.4 30.1 11.6 28 12.3 SW 15 22 8 12 - - 0.0
17/05:30pm 33.6 29.6 9.0 22 14.0 SW 20 32 11 17 - - 0.0
17/05:00pm 36.0 28.9 3.3 13 17.2 W 30 44 16 24 - - 0.0
17/04:31pm 37.2 30.2 4.2 13 17.8 W 30 48 16 26 - - 0.0
17/04:30pm 37.4 30.0 2.0 11 18.4 W 30 48 16 26 - - 0.0
17/04:00pm 37.3 32.1 5.3 14 17.5 WSW 22 35 12 19 - - 0.0
17/03:30pm 35.4 30.1 4.8 15 16.5 WSW 22 32 12 17 - - 0.0
17/03:00pm 36.9 31.0 4.0 13 17.6 W 24 37 13 20 - - 0.0
17/02:30pm 38.1 32.1 1.2 10 19.0 WNW 22 35 12 19 - - 0.0
17/02:00pm 38.0 32.2 2.5 11 18.7 WNW 22 35 12 19 - - 0.0
17/01:30pm 37.0 32.3 2.9 12 18.0 WNW 17 32 9 17 - - 0.0
17/01:00pm 35.9 32.2 4.2 14 16.9 NW 13 20 7 11 - - 0.0
17/12:30pm 35.3 32.4 4.8 15 16.4 NW 9 20 5 11 - - 0.0
17/12:00pm 32.3 29.3 4.2 17 14.7 NNW 9 17 5 9 - - 0.0
17/11:30am 32.7 29.5 5.3 18 14.6 NW 11 15 6 8 - - 0.0
17/11:00am 30.6 27.9 5.8 21 13.2 NNW 9 15 5 8 - - 0.0
17/10:30am 29.8 27.9 7.7 25 12.1 NNW 7 13 4 7 - - 0.0
17/10:00am 28.2 26.8 9.0 30 10.7 N 6 9 3 5 - - 0.0
17/09:30am 26.8 26.2 10.5 36 9.2 NNE 4 6 2 3 - - 0.0
17/09:00am 26.3 25.0 10.0 36 9.1 N 7 11 4 6 - - 0.0
17/08:30am 23.5 22.8 10.2 43 7.4 NE 4 6 2 3 - - 0.0
17/08:00am 22.8 21.7 10.6 46 6.8 NE 7 9 4 5 - - 0.0
17/07:30am 19.7 19.3 11.2 58 4.7 NE 4 6 2 3 - - 0.0
17/07:00am 19.2 18.6 10.5 57 4.7 E 4 6 2 3 - - 0.0
17/06:30am 19.2 18.6 10.5 57 4.7 ENE 4 6 2 3 - - 0.0
17/06:00am 19.8 19.1 10.0 53 5.3 ENE 4 6 2 3 - - 0.0
17/05:30am 20.2 18.1 9.7 51 5.7 ENE 11 13 6 7 - - 0.0
17/05:00am 18.8 17.8 10.4 58 4.5 ENE 6 7 3 4 - - 0.0
17/04:30am 18.0 17.4 11.8 67 3.4 ENE 6 7 3 4 - - 0.0
17/04:00am 18.3 18.6 12.3 68 3.4 ESE 2 2 1 1 - - 0.0
17/03:30am 17.1 16.3 11.2 68 3.2 ENE 6 9 3 5 - - 0.0
17/03:00am 16.7 16.1 11.6 72 2.8 ENE 6 6 3 3 - - 0.0
17/02:30am 16.9 16.0 10.7 67 3.3 E 6 7 3 4 - - 0.0
17/02:00am 17.3 16.5 9.7 61 4.0 ESE 4 6 2 3 - - 0.0
17/01:30am 18.2 17.9 8.7 54 5.0 CALM 0 0 0 0 - - 0.0
17/01:00am 18.9 18.6 8.6 51 5.4 CALM 0 0 0 0 - - 0.0
17/12:30am 18.9 18.7 9.1 53 5.2 CALM 0 0 0 0 - - 0.0
17/12:00am 20.9 20.6 8.5 45 6.6 CALM 0 0 0 0 - - 0.0
 
Date/Time
EDT
Temp
°C
App
Temp
°C
Dew
Point
°C
Rel
Hum
%
Delta-T
°C
Wind Press
QNH
hPa
Press
MSL
hPa
Rain since
9am
mm
Dir  Spd
km/h
Gust
km/h
Spd
kts
Gust
kts
16/11:30pm 23.1 22.5 7.2 36 8.3 CALM 0 0 0 0 - - 0.0
16/11:00pm 24.2 22.7 6.9 33 9.1 W 4 4 2 2 - - 0.0
16/10:30pm 25.2 23.6 6.4 30 9.8 WSW 4 7 2 4 - - 0.0
16/10:00pm 26.0 23.9 5.6 27 10.5 WSW 6 9 3 5 - - 0.0
16/09:30pm 27.0 24.6 4.1 23 11.6 WSW 6 7 3 4 - - 0.0
16/09:00pm 28.5 25.6 2.7 19 12.9 WSW 7 11 4 6 - - 0.0
16/08:30pm 30.6 27.2 1.9 16 14.3 W 9 11 5 6 - - 0.0
16/08:00pm 31.9 29.2 3.8 17 14.6 WNW 7 11 4 6 - - 0.0
16/07:30pm 32.9 28.5 2.9 15 15.4 WNW 15 20 8 11 - - 0.0
16/07:00pm 33.4 29.3 2.3 14 15.9 WNW 13 20 7 11 - - 0.0
16/06:30pm 34.1 29.7 4.7 16 15.7 W 17 26 9 14 - - 0.0
16/06:00pm 34.1 30.1 4.7 16 15.7 NW 15 26 8 14 - - 0.0
16/05:30pm 34.2 28.9 2.9 14 16.2 W 20 30 11 16 - - 0.0
16/05:00pm 33.9 28.9 3.7 15 15.8 W 19 37 10 20 - - 0.0
16/04:30pm 33.8 29.7 4.5 16 15.6 NW 15 26 8 14 - - 0.0
16/04:00pm 33.1 28.9 5.6 18 14.8 WNW 17 33 9 18 - - 0.0
16/03:30pm 33.0 28.4 5.5 18 14.8 WNW 19 33 10 18 - - 0.0
16/03:00pm 32.3 27.9 6.5 20 14.0 NW 19 39 10 21 - - 0.0
16/02:30pm 31.4 27.6 5.8 20 13.7 NW 15 28 8 15 - - 0.0
16/02:00pm 31.6 27.5 8.0 23 13.1 W 19 32 10 17 - - 0.0
16/01:30pm 31.0 26.8 7.5 23 12.9 WNW 19 32 10 17 - - 0.0
16/01:00pm 29.7 25.9 7.6 25 12.1 WNW 17 28 9 15 - - 0.0
16/12:30pm 29.3 25.2 7.8 26 11.8 NW 19 30 10 16 - - 0.0
16/12:00pm 27.9 24.8 8.7 30 10.6 WNW 15 24 8 13 - - 0.0
16/11:30am 26.8 24.6 9.2 33 9.7 NW 11 19 6 10 - - 0.0
16/11:00am 25.3 23.2 9.6 37 8.7 N 11 20 6 11 - - 0.0
16/10:30am 24.2 21.9 10.5 42 7.6 N 13 20 7 11 - - 0.0
16/10:00am 22.6 20.6 11.4 49 6.3 NNE 13 19 7 10 - - 0.0
16/09:30am 20.3 18.4 11.8 58 4.8 NNE 13 19 7 10 - - 0.0
16/09:00am 18.1 16.9 11.7 66 3.5 NE 9 13 5 7 - - 0.0
16/08:30am 15.7 14.7 11.1 74 2.5 NE 7 13 4 7 - - 0.0
16/08:00am 14.1 13.0 10.5 79 1.9 ENE 7 11 4 6 - - 0.0
16/07:30am 12.5 11.1 9.7 83 1.4 ENE 7 11 4 6 - - 0.0
16/07:00am 11.9 10.6 10.0 88 1.0 E 7 13 4 7 - - 0.0
16/06:30am 11.5 9.8 9.8 89 0.9 E 9 11 5 6 - - 0.0
16/06:00am 11.4 10.0 9.7 89 0.9 E 7 9 4 5 - - 0.0
16/05:30am 11.6 10.4 9.7 88 1.0 E 6 9 3 5 - - 0.0
16/05:00am 11.6 10.4 9.5 87 1.1 ESE 6 9 3 5 - - 0.0
16/04:30am 11.7 10.3 9.6 87 1.1 ESE 7 9 4 5 - - 0.0
16/04:00am 11.7 10.6 9.8 88 1.0 ESE 6 9 3 5 - - 0.0
16/03:30am 11.9 10.8 9.8 87 1.1 ESE 6 7 3 4 - - 0.0
16/03:00am 12.3 11.0 9.9 85 1.2 SE 7 11 4 6 - - 0.0
16/02:30am 12.8 11.6 10.2 84 1.4 SE 7 11 4 6 - - 0.0
16/02:00am 12.8 11.9 10.5 86 1.2 SSE 6 9 3 5 - - 0.0
16/01:30am 12.7 11.5 10.2 85 1.3 SSE 7 9 4 5 - - 0.0
16/01:00am 13.4 12.3 10.6 83 1.5 S 7 9 4 5 - - 0.0
16/12:30am 14.3 12.8 10.7 79 1.9 SSE 9 13 5 7 - - 0.0
16/12:00am 15.0 13.6 10.8 76 2.2 SSE 9 13 5 7 - - 0.0
 
Date/Time
EDT
Temp
°C
App
Temp
°C
Dew
Point
°C
Rel
Hum
%
Delta-T
°C
Wind Press
QNH
hPa
Press
MSL
hPa
Rain since
9am
mm
Dir  Spd
km/h
Gust
km/h
Spd
kts
Gust
kts
15/11:30pm 15.6 13.8 11.0 74 2.5 SSE 11 15 6 8 - - 0.0
15/11:00pm 16.0 14.6 11.0 72 2.7 S 9 13 5 7 - - 0.0
15/10:30pm 16.8 15.5 11.1 69 3.1 S 9 13 5 7 - - 0.0
15/10:00pm 17.8 16.1 11.1 65 3.7 S 11 17 6 9 - - 0.0
15/09:30pm 19.1 17.8 11.2 60 4.3 S 9 15 5 8 - - 0.0
15/09:00pm 20.2 18.4 10.9 55 5.1 S 11 17 6 9 - - 0.0
15/08:30pm 22.0 20.6 10.8 49 6.2 S 9 13 5 7 - - 0.0
15/08:00pm 22.9 21.1 10.7 46 6.8 S 11 15 6 8 - - 0.0
15/07:30pm 23.9 22.1 10.9 44 7.3 S 11 17 6 9 - - 0.0

Other Formats:

Comma delimited format used in spreadsheet applications
http://www.bom.gov.au/fwo/IDV60801/IDV60801.95832.axf

JavaScript Object Notation format (JSON) in row-major order
http://www.bom.gov.au/fwo/IDV60801/IDV60801.95832.json